sensor_id;sensor_type;location;lat;lon;timestamp;P1;durP1;ratioP1;P2;durP2;ratioP2
32445;SDS011;18899;50.748;7.102;2022-08-25T00:01:22;5.32;;;1.60;;
32445;SDS011;18899;50.748;7.102;2022-08-25T00:03:50;7.07;;;1.48;;
32445;SDS011;18899;50.748;7.102;2022-08-25T00:06:16;2.10;;;1.55;;
32445;SDS011;18899;50.748;7.102;2022-08-25T00:08:42;3.58;;;1.58;;
32445;SDS011;18899;50.748;7.102;2022-08-25T00:11:10;2.78;;;1.38;;
32445;SDS011;18899;50.748;7.102;2022-08-25T00:13:38;2.67;;;1.38;;
32445;SDS011;18899;50.748;7.102;2022-08-25T00:16:07;2.97;;;1.52;;
32445;SDS011;18899;50.748;7.102;2022-08-25T00:18:38;6.63;;;1.70;;
32445;SDS011;18899;50.748;7.102;2022-08-25T00:21:04;2.50;;;1.45;;
32445;SDS011;18899;50.748;7.102;2022-08-25T00:23:30;3.72;;;1.50;;
32445;SDS011;18899;50.748;7.102;2022-08-25T00:25:56;4.15;;;1.40;;
32445;SDS011;18899;50.748;7.102;2022-08-25T00:28:22;4.07;;;1.60;;
32445;SDS011;18899;50.748;7.102;2022-08-25T00:30:48;5.28;;;1.70;;
32445;SDS011;18899;50.748;7.102;2022-08-25T00:33:14;2.17;;;1.40;;
32445;SDS011;18899;50.748;7.102;2022-08-25T00:35:40;5.40;;;1.80;;
32445;SDS011;18899;50.748;7.102;2022-08-25T00:38:07;4.93;;;1.50;;
32445;SDS011;18899;50.748;7.102;2022-08-25T00:40:33;2.50;;;1.40;;
32445;SDS011;18899;50.748;7.102;2022-08-25T00:43:00;3.90;;;1.50;;
32445;SDS011;18899;50.748;7.102;2022-08-25T00:45:26;5.03;;;1.55;;
32445;SDS011;18899;50.748;7.102;2022-08-25T00:47:52;2.10;;;1.40;;
32445;SDS011;18899;50.748;7.102;2022-08-25T00:50:19;3.78;;;1.90;;
32445;SDS011;18899;50.748;7.102;2022-08-25T00:52:47;2.08;;;1.25;;
32445;SDS011;18899;50.748;7.102;2022-08-25T00:55:25;3.22;;;1.83;;
32445;SDS011;18899;50.748;7.102;2022-08-25T00:58:01;3.38;;;1.75;;
32445;SDS011;18899;50.748;7.102;2022-08-25T01:00:34;5.82;;;1.58;;
32445;SDS011;18899;50.748;7.102;2022-08-25T01:03:02;9.93;;;1.65;;
32445;SDS011;18899;50.748;7.102;2022-08-25T01:05:28;4.70;;;1.67;;
32445;SDS011;18899;50.748;7.102;2022-08-25T01:07:55;3.70;;;1.45;;
32445;SDS011;18899;50.748;7.102;2022-08-25T01:10:23;4.88;;;1.92;;
32445;SDS011;18899;50.748;7.102;2022-08-25T01:12:50;2.28;;;1.50;;
32445;SDS011;18899;50.748;7.102;2022-08-25T01:15:20;10.20;;;1.98;;
32445;SDS011;18899;50.748;7.102;2022-08-25T01:17:47;4.20;;;1.90;;
32445;SDS011;18899;50.748;7.102;2022-08-25T01:20:14;3.55;;;1.73;;
32445;SDS011;18899;50.748;7.102;2022-08-25T01:22:41;6.88;;;2.67;;
32445;SDS011;18899;50.748;7.102;2022-08-25T01:25:13;6.90;;;2.47;;
32445;SDS011;18899;50.748;7.102;2022-08-25T01:27:46;6.35;;;2.38;;
32445;SDS011;18899;50.748;7.102;2022-08-25T01:30:12;4.80;;;2.53;;
32445;SDS011;18899;50.748;7.102;2022-08-25T01:32:38;5.88;;;2.55;;
32445;SDS011;18899;50.748;7.102;2022-08-25T01:35:04;3.20;;;1.90;;
32445;SDS011;18899;50.748;7.102;2022-08-25T01:37:32;5.90;;;2.15;;
32445;SDS011;18899;50.748;7.102;2022-08-25T01:39:59;2.65;;;1.75;;
32445;SDS011;18899;50.748;7.102;2022-08-25T01:43:10;2.85;;;1.77;;
32445;SDS011;18899;50.748;7.102;2022-08-25T01:45:45;4.00;;;2.10;;
32445;SDS011;18899;50.748;7.102;2022-08-25T01:48:12;6.47;;;1.98;;
32445;SDS011;18899;50.748;7.102;2022-08-25T01:50:39;5.60;;;1.90;;
32445;SDS011;18899;50.748;7.102;2022-08-25T01:55:47;5.03;;;1.90;;
32445;SDS011;18899;50.748;7.102;2022-08-25T01:58:21;3.45;;;1.80;;
32445;SDS011;18899;50.748;7.102;2022-08-25T02:00:50;3.95;;;1.98;;
32445;SDS011;18899;50.748;7.102;2022-08-25T02:03:18;3.95;;;2.10;;
32445;SDS011;18899;50.748;7.102;2022-08-25T02:05:44;9.15;;;2.20;;
32445;SDS011;18899;50.748;7.102;2022-08-25T02:08:10;4.03;;;1.98;;
32445;SDS011;18899;50.748;7.102;2022-08-25T02:10:37;4.03;;;2.30;;
32445;SDS011;18899;50.748;7.102;2022-08-25T02:13:03;5.13;;;2.10;;
32445;SDS011;18899;50.748;7.102;2022-08-25T02:15:29;3.92;;;2.20;;
32445;SDS011;18899;50.748;7.102;2022-08-25T02:17:55;4.07;;;2.08;;
32445;SDS011;18899;50.748;7.102;2022-08-25T02:20:21;3.88;;;2.30;;
32445;SDS011;18899;50.748;7.102;2022-08-25T02:22:48;5.13;;;2.22;;
32445;SDS011;18899;50.748;7.102;2022-08-25T02:25:15;5.38;;;2.45;;
32445;SDS011;18899;50.748;7.102;2022-08-25T02:27:41;4.38;;;2.70;;
32445;SDS011;18899;50.748;7.102;2022-08-25T02:30:06;10.35;;;2.47;;
32445;SDS011;18899;50.748;7.102;2022-08-25T02:32:33;3.70;;;2.53;;
32445;SDS011;18899;50.748;7.102;2022-08-25T02:34:58;9.27;;;3.45;;
32445;SDS011;18899;50.748;7.102;2022-08-25T02:37:24;4.68;;;2.67;;
32445;SDS011;18899;50.748;7.102;2022-08-25T02:39:51;6.43;;;2.92;;
32445;SDS011;18899;50.748;7.102;2022-08-25T02:42:16;5.53;;;2.33;;
32445;SDS011;18899;50.748;7.102;2022-08-25T02:44:42;5.90;;;2.30;;
32445;SDS011;18899;50.748;7.102;2022-08-25T02:47:07;3.55;;;2.40;;
32445;SDS011;18899;50.748;7.102;2022-08-25T02:49:33;3.78;;;2.28;;
32445;SDS011;18899;50.748;7.102;2022-08-25T02:51:59;5.63;;;2.35;;
32445;SDS011;18899;50.748;7.102;2022-08-25T02:54:25;4.65;;;2.08;;
32445;SDS011;18899;50.748;7.102;2022-08-25T02:56:51;6.07;;;2.35;;
32445;SDS011;18899;50.748;7.102;2022-08-25T02:59:17;5.28;;;2.47;;
32445;SDS011;18899;50.748;7.102;2022-08-25T03:01:43;4.40;;;2.38;;
32445;SDS011;18899;50.748;7.102;2022-08-25T03:04:09;3.47;;;2.15;;
32445;SDS011;18899;50.748;7.102;2022-08-25T03:06:35;6.63;;;2.47;;
32445;SDS011;18899;50.748;7.102;2022-08-25T03:09:01;6.38;;;2.30;;
32445;SDS011;18899;50.748;7.102;2022-08-25T03:11:27;4.57;;;2.30;;
32445;SDS011;18899;50.748;7.102;2022-08-25T03:13:53;3.83;;;2.55;;
32445;SDS011;18899;50.748;7.102;2022-08-25T03:16:20;5.95;;;2.80;;
32445;SDS011;18899;50.748;7.102;2022-08-25T03:18:46;4.88;;;2.75;;
32445;SDS011;18899;50.748;7.102;2022-08-25T03:21:13;6.82;;;2.35;;
32445;SDS011;18899;50.748;7.102;2022-08-25T03:23:40;4.13;;;2.50;;
32445;SDS011;18899;50.748;7.102;2022-08-25T03:26:06;7.32;;;2.67;;
32445;SDS011;18899;50.748;7.102;2022-08-25T03:28:51;7.07;;;2.45;;
32445;SDS011;18899;50.748;7.102;2022-08-25T03:31:19;5.90;;;2.90;;
32445;SDS011;18899;50.748;7.102;2022-08-25T03:33:46;3.35;;;2.30;;
32445;SDS011;18899;50.748;7.102;2022-08-25T03:36:11;5.63;;;3.03;;
32445;SDS011;18899;50.748;7.102;2022-08-25T03:38:37;4.43;;;2.40;;
32445;SDS011;18899;50.748;7.102;2022-08-25T03:41:14;5.50;;;2.97;;
32445;SDS011;18899;50.748;7.102;2022-08-25T03:43:43;6.82;;;2.63;;
32445;SDS011;18899;50.748;7.102;2022-08-25T03:46:09;4.72;;;2.70;;
32445;SDS011;18899;50.748;7.102;2022-08-25T03:48:44;9.90;;;3.00;;
32445;SDS011;18899;50.748;7.102;2022-08-25T03:51:10;4.15;;;2.65;;
32445;SDS011;18899;50.748;7.102;2022-08-25T03:53:35;9.30;;;2.55;;
32445;SDS011;18899;50.748;7.102;2022-08-25T03:56:01;8.93;;;2.58;;
32445;SDS011;18899;50.748;7.102;2022-08-25T03:58:26;3.33;;;2.38;;
32445;SDS011;18899;50.748;7.102;2022-08-25T04:00:52;4.90;;;2.50;;
32445;SDS011;18899;50.748;7.102;2022-08-25T04:03:18;3.45;;;2.38;;
32445;SDS011;18899;50.748;7.102;2022-08-25T04:05:44;4.97;;;2.70;;
32445;SDS011;18899;50.748;7.102;2022-08-25T04:08:11;5.75;;;2.78;;
32445;SDS011;18899;50.748;7.102;2022-08-25T04:10:36;7.50;;;3.35;;
32445;SDS011;18899;50.748;7.102;2022-08-25T04:13:02;6.70;;;2.75;;
32445;SDS011;18899;50.748;7.102;2022-08-25T04:15:27;6.38;;;3.03;;
32445;SDS011;18899;50.748;7.102;2022-08-25T04:17:53;6.70;;;2.95;;
32445;SDS011;18899;50.748;7.102;2022-08-25T04:20:19;4.78;;;3.10;;
32445;SDS011;18899;50.748;7.102;2022-08-25T04:22:44;7.28;;;3.20;;
32445;SDS011;18899;50.748;7.102;2022-08-25T04:25:10;5.13;;;2.63;;
32445;SDS011;18899;50.748;7.102;2022-08-25T04:27:36;10.35;;;2.85;;
32445;SDS011;18899;50.748;7.102;2022-08-25T04:30:02;8.45;;;2.72;;
32445;SDS011;18899;50.748;7.102;2022-08-25T04:32:29;5.80;;;2.83;;
32445;SDS011;18899;50.748;7.102;2022-08-25T04:34:55;9.82;;;2.72;;
32445;SDS011;18899;50.748;7.102;2022-08-25T04:37:20;5.28;;;2.30;;
32445;SDS011;18899;50.748;7.102;2022-08-25T04:39:46;8.02;;;3.03;;
32445;SDS011;18899;50.748;7.102;2022-08-25T04:42:11;5.05;;;2.53;;
32445;SDS011;18899;50.748;7.102;2022-08-25T04:44:37;3.78;;;2.53;;
32445;SDS011;18899;50.748;7.102;2022-08-25T04:47:02;6.65;;;3.22;;
32445;SDS011;18899;50.748;7.102;2022-08-25T04:49:28;4.47;;;2.63;;
32445;SDS011;18899;50.748;7.102;2022-08-25T04:51:54;5.82;;;2.92;;
32445;SDS011;18899;50.748;7.102;2022-08-25T04:54:20;6.07;;;2.80;;
32445;SDS011;18899;50.748;7.102;2022-08-25T04:56:46;8.05;;;2.30;;
32445;SDS011;18899;50.748;7.102;2022-08-25T04:59:14;5.75;;;3.20;;
32445;SDS011;18899;50.748;7.102;2022-08-25T05:01:40;9.27;;;2.40;;
32445;SDS011;18899;50.748;7.102;2022-08-25T05:04:08;5.20;;;2.40;;
32445;SDS011;18899;50.748;7.102;2022-08-25T05:06:35;6.80;;;2.53;;
32445;SDS011;18899;50.748;7.102;2022-08-25T05:09:02;8.45;;;2.92;;
32445;SDS011;18899;50.748;7.102;2022-08-25T05:11:28;11.43;;;2.80;;
32445;SDS011;18899;50.748;7.102;2022-08-25T05:13:54;5.72;;;2.60;;
32445;SDS011;18899;50.748;7.102;2022-08-25T05:16:22;10.43;;;2.67;;
32445;SDS011;18899;50.748;7.102;2022-08-25T05:18:49;8.40;;;2.38;;
32445;SDS011;18899;50.748;7.102;2022-08-25T05:21:16;5.68;;;2.55;;
32445;SDS011;18899;50.748;7.102;2022-08-25T05:23:44;5.05;;;2.80;;
32445;SDS011;18899;50.748;7.102;2022-08-25T05:26:12;4.00;;;2.70;;
32445;SDS011;18899;50.748;7.102;2022-08-25T05:28:43;4.05;;;2.38;;
32445;SDS011;18899;50.748;7.102;2022-08-25T05:31:10;6.43;;;2.60;;
32445;SDS011;18899;50.748;7.102;2022-08-25T05:33:37;8.20;;;2.47;;
32445;SDS011;18899;50.748;7.102;2022-08-25T05:36:04;9.45;;;2.60;;
32445;SDS011;18899;50.748;7.102;2022-08-25T05:38:30;7.82;;;3.03;;
32445;SDS011;18899;50.748;7.102;2022-08-25T05:41:06;8.05;;;2.75;;
32445;SDS011;18899;50.748;7.102;2022-08-25T05:43:35;3.55;;;2.38;;
32445;SDS011;18899;50.748;7.102;2022-08-25T05:46:01;8.27;;;2.67;;
32445;SDS011;18899;50.748;7.102;2022-08-25T05:48:27;5.75;;;2.45;;
32445;SDS011;18899;50.748;7.102;2022-08-25T05:50:55;4.55;;;2.20;;
32445;SDS011;18899;50.748;7.102;2022-08-25T05:53:24;6.30;;;2.95;;
32445;SDS011;18899;50.748;7.102;2022-08-25T05:55:51;8.43;;;2.35;;
32445;SDS011;18899;50.748;7.102;2022-08-25T05:58:18;5.22;;;2.00;;
32445;SDS011;18899;50.748;7.102;2022-08-25T06:00:45;4.65;;;2.50;;
32445;SDS011;18899;50.748;7.102;2022-08-25T06:03:11;5.35;;;2.65;;
32445;SDS011;18899;50.748;7.102;2022-08-25T06:05:37;5.30;;;2.03;;
32445;SDS011;18899;50.748;7.102;2022-08-25T06:08:03;7.05;;;2.38;;
32445;SDS011;18899;50.748;7.102;2022-08-25T06:10:29;6.65;;;2.22;;
32445;SDS011;18899;50.748;7.102;2022-08-25T06:12:54;3.50;;;2.15;;
32445;SDS011;18899;50.748;7.102;2022-08-25T06:15:21;8.70;;;2.80;;
32445;SDS011;18899;50.748;7.102;2022-08-25T06:17:48;7.00;;;2.22;;
32445;SDS011;18899;50.748;7.102;2022-08-25T06:20:15;4.30;;;2.25;;
32445;SDS011;18899;50.748;7.102;2022-08-25T06:22:46;3.63;;;1.90;;
32445;SDS011;18899;50.748;7.102;2022-08-25T06:25:13;5.07;;;1.88;;
32445;SDS011;18899;50.748;7.102;2022-08-25T06:27:40;4.93;;;2.10;;
32445;SDS011;18899;50.748;7.102;2022-08-25T06:30:06;7.13;;;2.10;;
32445;SDS011;18899;50.748;7.102;2022-08-25T06:32:34;3.17;;;2.00;;
32445;SDS011;18899;50.748;7.102;2022-08-25T06:35:02;4.90;;;2.13;;
32445;SDS011;18899;50.748;7.102;2022-08-25T06:37:28;3.80;;;1.92;;
32445;SDS011;18899;50.748;7.102;2022-08-25T06:39:54;8.23;;;2.22;;
32445;SDS011;18899;50.748;7.102;2022-08-25T06:42:19;5.47;;;2.30;;
32445;SDS011;18899;50.748;7.102;2022-08-25T06:44:46;5.13;;;1.92;;
32445;SDS011;18899;50.748;7.102;2022-08-25T06:47:11;5.55;;;1.60;;
32445;SDS011;18899;50.748;7.102;2022-08-25T06:49:39;5.43;;;1.77;;
32445;SDS011;18899;50.748;7.102;2022-08-25T06:52:06;7.75;;;2.25;;
32445;SDS011;18899;50.748;7.102;2022-08-25T06:54:32;3.38;;;1.75;;
32445;SDS011;18899;50.748;7.102;2022-08-25T06:56:58;4.43;;;1.63;;
32445;SDS011;18899;50.748;7.102;2022-08-25T06:59:25;4.88;;;1.77;;
32445;SDS011;18899;50.748;7.102;2022-08-25T07:01:51;6.72;;;2.22;;
32445;SDS011;18899;50.748;7.102;2022-08-25T07:04:17;4.10;;;1.92;;
32445;SDS011;18899;50.748;7.102;2022-08-25T07:06:42;6.93;;;2.05;;
32445;SDS011;18899;50.748;7.102;2022-08-25T07:09:09;3.45;;;1.90;;
32445;SDS011;18899;50.748;7.102;2022-08-25T07:11:35;4.03;;;2.10;;
32445;SDS011;18899;50.748;7.102;2022-08-25T07:14:01;4.85;;;1.90;;
32445;SDS011;18899;50.748;7.102;2022-08-25T07:16:28;5.68;;;2.03;;
32445;SDS011;18899;50.748;7.102;2022-08-25T07:18:55;3.83;;;2.05;;
32445;SDS011;18899;50.748;7.102;2022-08-25T07:21:21;5.03;;;1.98;;
32445;SDS011;18899;50.748;7.102;2022-08-25T07:23:48;5.85;;;1.90;;
32445;SDS011;18899;50.748;7.102;2022-08-25T07:26:19;4.38;;;2.10;;
32445;SDS011;18899;50.748;7.102;2022-08-25T07:28:47;6.97;;;2.00;;
32445;SDS011;18899;50.748;7.102;2022-08-25T07:31:14;3.38;;;2.15;;
32445;SDS011;18899;50.748;7.102;2022-08-25T07:33:40;5.68;;;2.17;;
32445;SDS011;18899;50.748;7.102;2022-08-25T07:36:25;5.00;;;2.10;;
32445;SDS011;18899;50.748;7.102;2022-08-25T07:38:51;5.15;;;2.10;;
32445;SDS011;18899;50.748;7.102;2022-08-25T07:41:17;3.72;;;2.17;;
32445;SDS011;18899;50.748;7.102;2022-08-25T07:43:44;4.43;;;2.15;;
32445;SDS011;18899;50.748;7.102;2022-08-25T07:46:11;11.00;;;2.20;;
32445;SDS011;18899;50.748;7.102;2022-08-25T07:48:37;6.68;;;2.30;;
32445;SDS011;18899;50.748;7.102;2022-08-25T07:51:10;6.68;;;2.30;;
32445;SDS011;18899;50.748;7.102;2022-08-25T07:53:41;5.15;;;1.90;;
32445;SDS011;18899;50.748;7.102;2022-08-25T07:56:10;5.93;;;2.30;;
32445;SDS011;18899;50.748;7.102;2022-08-25T07:58:37;5.18;;;2.40;;
32445;SDS011;18899;50.748;7.102;2022-08-25T08:01:04;4.38;;;2.20;;
32445;SDS011;18899;50.748;7.102;2022-08-25T08:03:30;3.97;;;2.38;;
32445;SDS011;18899;50.748;7.102;2022-08-25T08:05:58;6.35;;;2.47;;
32445;SDS011;18899;50.748;7.102;2022-08-25T08:08:24;3.58;;;2.45;;
32445;SDS011;18899;50.748;7.102;2022-08-25T08:10:50;6.18;;;2.50;;
32445;SDS011;18899;50.748;7.102;2022-08-25T08:13:16;4.03;;;2.53;;
32445;SDS011;18899;50.748;7.102;2022-08-25T08:15:42;5.25;;;2.53;;
32445;SDS011;18899;50.748;7.102;2022-08-25T08:18:08;5.50;;;2.28;;
32445;SDS011;18899;50.748;7.102;2022-08-25T08:20:34;3.03;;;2.33;;
32445;SDS011;18899;50.748;7.102;2022-08-25T08:23:00;4.00;;;2.35;;
32445;SDS011;18899;50.748;7.102;2022-08-25T08:25:26;8.85;;;2.22;;
32445;SDS011;18899;50.748;7.102;2022-08-25T08:27:52;4.60;;;2.20;;
32445;SDS011;18899;50.748;7.102;2022-08-25T08:30:18;5.40;;;2.15;;
32445;SDS011;18899;50.748;7.102;2022-08-25T08:32:45;4.05;;;2.30;;
32445;SDS011;18899;50.748;7.102;2022-08-25T08:35:13;4.22;;;2.50;;
32445;SDS011;18899;50.748;7.102;2022-08-25T08:37:42;3.75;;;2.40;;
32445;SDS011;18899;50.748;7.102;2022-08-25T08:40:11;3.45;;;2.40;;
32445;SDS011;18899;50.748;7.102;2022-08-25T08:45:21;2.88;;;2.10;;
32445;SDS011;18899;50.748;7.102;2022-08-25T08:53:26;2.67;;;2.17;;
32445;SDS011;18899;50.748;7.102;2022-08-25T08:56:01;3.37;;;2.10;;
32445;SDS011;18899;50.748;7.102;2022-08-25T09:03:40;4.00;;;2.10;;
32445;SDS011;18899;50.748;7.102;2022-08-25T09:06:12;5.68;;;2.22;;
32445;SDS011;18899;50.748;7.102;2022-08-25T09:09:31;6.57;;;2.33;;
32445;SDS011;18899;50.748;7.102;2022-08-25T09:12:14;6.07;;;2.15;;
32445;SDS011;18899;50.748;7.102;2022-08-25T09:17:30;2.80;;;2.10;;
32445;SDS011;18899;50.748;7.102;2022-08-25T09:20:28;4.20;;;1.70;;
32445;SDS011;18899;50.748;7.102;2022-08-25T09:25:32;4.90;;;2.45;;
32445;SDS011;18899;50.748;7.102;2022-08-25T09:28:31;4.72;;;2.15;;
32445;SDS011;18899;50.748;7.102;2022-08-25T09:30:59;4.15;;;2.40;;
32445;SDS011;18899;50.748;7.102;2022-08-25T09:33:33;3.95;;;2.28;;
32445;SDS011;18899;50.748;7.102;2022-08-25T09:35:59;3.03;;;2.13;;
32445;SDS011;18899;50.748;7.102;2022-08-25T09:38:26;6.93;;;2.20;;
32445;SDS011;18899;50.748;7.102;2022-08-25T09:40:56;7.28;;;2.00;;
32445;SDS011;18899;50.748;7.102;2022-08-25T09:43:40;3.03;;;2.25;;
32445;SDS011;18899;50.748;7.102;2022-08-25T09:46:24;4.75;;;2.83;;
32445;SDS011;18899;50.748;7.102;2022-08-25T09:48:52;2.72;;;2.17;;
32445;SDS011;18899;50.748;7.102;2022-08-25T09:51:22;4.45;;;2.50;;
32445;SDS011;18899;50.748;7.102;2022-08-25T09:54:18;4.35;;;2.10;;
32445;SDS011;18899;50.748;7.102;2022-08-25T09:56:47;3.00;;;2.05;;
32445;SDS011;18899;50.748;7.102;2022-08-25T10:01:52;8.13;;;2.40;;
32445;SDS011;18899;50.748;7.102;2022-08-25T10:04:26;3.53;;;2.40;;
32445;SDS011;18899;50.748;7.102;2022-08-25T10:06:55;3.17;;;2.80;;
32445;SDS011;18899;50.748;7.102;2022-08-25T10:09:44;2.70;;;1.88;;
32445;SDS011;18899;50.748;7.102;2022-08-25T10:12:19;2.60;;;2.13;;
32445;SDS011;18899;50.748;7.102;2022-08-25T10:14:48;3.88;;;2.47;;
32445;SDS011;18899;50.748;7.102;2022-08-25T10:19:51;7.03;;;3.38;;
32445;SDS011;18899;50.748;7.102;2022-08-25T10:22:21;5.35;;;2.53;;
32445;SDS011;18899;50.748;7.102;2022-08-25T10:24:50;7.05;;;2.70;;
32445;SDS011;18899;50.748;7.102;2022-08-25T10:27:38;4.18;;;2.55;;
32445;SDS011;18899;50.748;7.102;2022-08-25T10:33:14;4.30;;;2.38;;
32445;SDS011;18899;50.748;7.102;2022-08-25T10:36:11;4.72;;;3.00;;
32445;SDS011;18899;50.748;7.102;2022-08-25T10:38:47;3.83;;;2.67;;
32445;SDS011;18899;50.748;7.102;2022-08-25T10:47:12;4.97;;;2.28;;
32445;SDS011;18899;50.748;7.102;2022-08-25T10:49:46;5.13;;;2.50;;
32445;SDS011;18899;50.748;7.102;2022-08-25T10:52:16;6.82;;;3.10;;
32445;SDS011;18899;50.748;7.102;2022-08-25T10:55:12;3.45;;;2.80;;
32445;SDS011;18899;50.748;7.102;2022-08-25T10:58:03;5.18;;;3.25;;
32445;SDS011;18899;50.748;7.102;2022-08-25T11:00:42;5.13;;;3.22;;
32445;SDS011;18899;50.748;7.102;2022-08-25T11:03:32;3.92;;;2.67;;
32445;SDS011;18899;50.748;7.102;2022-08-25T11:06:13;5.20;;;2.97;;
32445;SDS011;18899;50.748;7.102;2022-08-25T11:08:52;4.55;;;2.65;;
32445;SDS011;18899;50.748;7.102;2022-08-25T11:11:33;6.53;;;3.00;;
32445;SDS011;18899;50.748;7.102;2022-08-25T11:14:17;5.85;;;2.95;;
32445;SDS011;18899;50.748;7.102;2022-08-25T11:17:05;4.55;;;2.88;;
32445;SDS011;18899;50.748;7.102;2022-08-25T11:19:38;4.18;;;2.55;;
32445;SDS011;18899;50.748;7.102;2022-08-25T11:25:01;5.45;;;3.20;;
32445;SDS011;18899;50.748;7.102;2022-08-25T11:27:43;7.07;;;3.03;;
32445;SDS011;18899;50.748;7.102;2022-08-25T11:30:11;4.95;;;2.65;;
32445;SDS011;18899;50.748;7.102;2022-08-25T11:32:39;4.28;;;3.10;;
32445;SDS011;18899;50.748;7.102;2022-08-25T11:35:12;7.72;;;3.17;;
32445;SDS011;18899;50.748;7.102;2022-08-25T11:37:43;5.00;;;2.72;;
32445;SDS011;18899;50.748;7.102;2022-08-25T11:48:36;4.85;;;2.50;;
32445;SDS011;18899;50.748;7.102;2022-08-25T11:51:34;7.05;;;2.83;;
32445;SDS011;18899;50.748;7.102;2022-08-25T11:54:06;4.75;;;2.67;;
32445;SDS011;18899;50.748;7.102;2022-08-25T11:57:02;3.65;;;2.60;;
32445;SDS011;18899;50.748;7.102;2022-08-25T12:05:05;6.25;;;2.85;;
32445;SDS011;18899;50.748;7.102;2022-08-25T12:10:18;3.03;;;2.45;;
32445;SDS011;18899;50.748;7.102;2022-08-25T12:12:56;5.25;;;2.83;;
32445;SDS011;18899;50.748;7.102;2022-08-25T12:26:01;3.55;;;2.60;;
32445;SDS011;18899;50.748;7.102;2022-08-25T12:28:39;5.03;;;2.90;;
32445;SDS011;18899;50.748;7.102;2022-08-25T12:36:33;3.90;;;2.60;;
32445;SDS011;18899;50.748;7.102;2022-08-25T12:39:16;5.38;;;2.83;;
32445;SDS011;18899;50.748;7.102;2022-08-25T12:42:00;7.35;;;2.50;;
32445;SDS011;18899;50.748;7.102;2022-08-25T12:47:23;7.97;;;2.80;;
32445;SDS011;18899;50.748;7.102;2022-08-25T12:49:52;3.47;;;2.65;;
32445;SDS011;18899;50.748;7.102;2022-08-25T12:52:38;4.53;;;2.30;;
32445;SDS011;18899;50.748;7.102;2022-08-25T12:55:04;4.13;;;2.75;;
32445;SDS011;18899;50.748;7.102;2022-08-25T12:57:39;4.57;;;2.55;;
32445;SDS011;18899;50.748;7.102;2022-08-25T13:00:27;4.65;;;2.60;;
32445;SDS011;18899;50.748;7.102;2022-08-25T13:06:08;4.18;;;2.83;;
32445;SDS011;18899;50.748;7.102;2022-08-25T13:11:43;5.80;;;2.58;;
32445;SDS011;18899;50.748;7.102;2022-08-25T13:14:20;4.15;;;2.50;;
32445;SDS011;18899;50.748;7.102;2022-08-25T13:16:54;3.85;;;2.50;;
32445;SDS011;18899;50.748;7.102;2022-08-25T13:19:22;4.10;;;2.63;;
32445;SDS011;18899;50.748;7.102;2022-08-25T13:21:49;6.13;;;2.95;;
32445;SDS011;18899;50.748;7.102;2022-08-25T13:24:23;3.55;;;2.40;;
32445;SDS011;18899;50.748;7.102;2022-08-25T13:27:16;3.60;;;2.20;;
32445;SDS011;18899;50.748;7.102;2022-08-25T13:29:49;2.67;;;2.00;;
32445;SDS011;18899;50.748;7.102;2022-08-25T13:32:26;3.50;;;2.20;;
32445;SDS011;18899;50.748;7.102;2022-08-25T13:35:06;4.95;;;2.10;;
32445;SDS011;18899;50.748;7.102;2022-08-25T13:37:36;2.88;;;2.10;;
32445;SDS011;18899;50.748;7.102;2022-08-25T13:40:22;5.80;;;2.60;;
32445;SDS011;18899;50.748;7.102;2022-08-25T13:42:51;5.13;;;2.30;;
32445;SDS011;18899;50.748;7.102;2022-08-25T13:45:24;2.60;;;2.00;;
32445;SDS011;18899;50.748;7.102;2022-08-25T13:47:52;3.55;;;2.55;;
32445;SDS011;18899;50.748;7.102;2022-08-25T13:55:21;6.53;;;2.15;;
32445;SDS011;18899;50.748;7.102;2022-08-25T13:58:03;5.03;;;2.10;;
32445;SDS011;18899;50.748;7.102;2022-08-25T14:02:58;2.80;;;1.88;;
32445;SDS011;18899;50.748;7.102;2022-08-25T14:05:31;3.72;;;2.00;;
32445;SDS011;18899;50.748;7.102;2022-08-25T14:07:58;7.60;;;2.97;;
32445;SDS011;18899;50.748;7.102;2022-08-25T14:10:40;2.05;;;1.70;;
32445;SDS011;18899;50.748;7.102;2022-08-25T14:15:42;5.10;;;1.90;;
32445;SDS011;18899;50.748;7.102;2022-08-25T14:18:12;2.58;;;1.80;;
32445;SDS011;18899;50.748;7.102;2022-08-25T14:20:47;2.95;;;1.88;;
32445;SDS011;18899;50.748;7.102;2022-08-25T14:23:19;5.45;;;1.73;;
32445;SDS011;18899;50.748;7.102;2022-08-25T14:25:48;3.28;;;2.10;;
32445;SDS011;18899;50.748;7.102;2022-08-25T14:28:16;3.75;;;1.95;;
32445;SDS011;18899;50.748;7.102;2022-08-25T14:30:48;2.88;;;1.98;;
32445;SDS011;18899;50.748;7.102;2022-08-25T14:33:19;3.25;;;2.00;;
32445;SDS011;18899;50.748;7.102;2022-08-25T14:35:51;4.97;;;2.20;;
32445;SDS011;18899;50.748;7.102;2022-08-25T14:38:19;5.22;;;1.92;;
32445;SDS011;18899;50.748;7.102;2022-08-25T14:40:46;4.13;;;1.90;;
32445;SDS011;18899;50.748;7.102;2022-08-25T14:43:12;2.40;;;1.58;;
32445;SDS011;18899;50.748;7.102;2022-08-25T14:45:40;4.60;;;1.70;;
32445;SDS011;18899;50.748;7.102;2022-08-25T14:48:09;3.20;;;1.63;;
32445;SDS011;18899;50.748;7.102;2022-08-25T14:50:40;3.53;;;2.05;;
32445;SDS011;18899;50.748;7.102;2022-08-25T14:53:06;4.43;;;1.70;;
32445;SDS011;18899;50.748;7.102;2022-08-25T14:55:31;2.33;;;1.70;;
32445;SDS011;18899;50.748;7.102;2022-08-25T14:57:57;4.95;;;2.50;;
32445;SDS011;18899;50.748;7.102;2022-08-25T15:00:23;3.65;;;1.70;;
32445;SDS011;18899;50.748;7.102;2022-08-25T15:02:49;2.35;;;1.90;;
32445;SDS011;18899;50.748;7.102;2022-08-25T15:05:15;2.95;;;1.65;;
32445;SDS011;18899;50.748;7.102;2022-08-25T15:07:48;3.70;;;1.65;;
32445;SDS011;18899;50.748;7.102;2022-08-25T15:10:32;5.53;;;1.92;;
32445;SDS011;18899;50.748;7.102;2022-08-25T15:12:58;3.90;;;1.52;;
32445;SDS011;18899;50.748;7.102;2022-08-25T15:15:23;4.18;;;1.80;;
32445;SDS011;18899;50.748;7.102;2022-08-25T15:17:52;3.08;;;1.83;;
32445;SDS011;18899;50.748;7.102;2022-08-25T15:20:18;2.88;;;1.80;;
32445;SDS011;18899;50.748;7.102;2022-08-25T15:22:44;3.08;;;1.80;;
32445;SDS011;18899;50.748;7.102;2022-08-25T15:25:12;2.47;;;1.70;;
32445;SDS011;18899;50.748;7.102;2022-08-25T15:27:38;3.53;;;1.80;;
32445;SDS011;18899;50.748;7.102;2022-08-25T15:30:04;4.22;;;1.63;;
32445;SDS011;18899;50.748;7.102;2022-08-25T15:32:30;4.80;;;2.33;;
32445;SDS011;18899;50.748;7.102;2022-08-25T15:34:56;4.15;;;1.90;;
32445;SDS011;18899;50.748;7.102;2022-08-25T15:37:22;2.38;;;1.80;;
32445;SDS011;18899;50.748;7.102;2022-08-25T15:39:47;3.50;;;1.55;;
32445;SDS011;18899;50.748;7.102;2022-08-25T15:42:13;4.05;;;1.77;;
32445;SDS011;18899;50.748;7.102;2022-08-25T15:44:40;2.72;;;1.60;;
32445;SDS011;18899;50.748;7.102;2022-08-25T15:47:07;3.45;;;1.73;;
32445;SDS011;18899;50.748;7.102;2022-08-25T15:49:33;3.22;;;2.00;;
32445;SDS011;18899;50.748;7.102;2022-08-25T15:51:59;6.10;;;2.10;;
32445;SDS011;18899;50.748;7.102;2022-08-25T15:54:25;3.42;;;1.85;;
32445;SDS011;18899;50.748;7.102;2022-08-25T15:56:52;3.17;;;1.95;;
32445;SDS011;18899;50.748;7.102;2022-08-25T15:59:19;3.33;;;1.65;;
32445;SDS011;18899;50.748;7.102;2022-08-25T16:01:45;4.22;;;1.95;;
32445;SDS011;18899;50.748;7.102;2022-08-25T16:04:10;8.77;;;2.33;;
32445;SDS011;18899;50.748;7.102;2022-08-25T16:06:36;4.03;;;2.05;;
32445;SDS011;18899;50.748;7.102;2022-08-25T16:09:03;4.43;;;2.10;;
32445;SDS011;18899;50.748;7.102;2022-08-25T16:11:30;2.33;;;1.77;;
32445;SDS011;18899;50.748;7.102;2022-08-25T16:13:57;3.50;;;2.00;;
32445;SDS011;18899;50.748;7.102;2022-08-25T16:16:24;2.95;;;2.20;;
32445;SDS011;18899;50.748;7.102;2022-08-25T16:18:52;3.78;;;2.22;;
32445;SDS011;18899;50.748;7.102;2022-08-25T16:21:19;3.75;;;2.10;;
32445;SDS011;18899;50.748;7.102;2022-08-25T16:23:49;6.25;;;2.00;;
32445;SDS011;18899;50.748;7.102;2022-08-25T16:26:17;3.30;;;2.03;;
32445;SDS011;18899;50.748;7.102;2022-08-25T16:28:43;4.88;;;2.28;;
32445;SDS011;18899;50.748;7.102;2022-08-25T16:31:09;3.50;;;2.55;;
32445;SDS011;18899;50.748;7.102;2022-08-25T16:33:36;7.15;;;2.53;;